createdAt,value
2022-10-05T00:00:56.588Z,0.00
2022-10-05T00:05:59.219Z,0.75
2022-10-05T00:11:03.427Z,0.75
2022-10-05T00:16:13.874Z,1.00
2022-10-05T00:21:20.845Z,1.00
2022-10-05T00:26:27.033Z,0.00
2022-10-05T00:31:33.518Z,1.00
2022-10-05T00:36:36.253Z,1.00
2022-10-05T00:41:56.323Z,0.00
2022-10-05T00:47:11.933Z,0.25
2022-10-05T00:52:24.883Z,0.25
2022-10-05T00:57:39.794Z,1.00
2022-10-05T01:02:53.138Z,0.00
2022-10-05T01:08:04.146Z,0.50
2022-10-05T01:13:17.888Z,1.00
2022-10-05T01:18:26.296Z,0.00
2022-10-05T01:23:47.226Z,0.00
2022-10-05T01:28:55.692Z,0.00
2022-10-05T01:34:11.725Z,0.00
2022-10-05T01:39:21.303Z,0.50
2022-10-05T01:44:33.270Z,0.00
2022-10-05T01:49:39.539Z,1.00
2022-10-05T01:54:57.735Z,0.00
2022-10-05T02:00:08.640Z,0.50
2022-10-05T02:05:22.434Z,0.50
2022-10-05T02:10:29.745Z,0.50
2022-10-05T02:15:41.504Z,0.00
2022-10-05T02:20:45.207Z,0.50
2022-10-05T02:25:50.418Z,0.00
2022-10-05T02:31:02.281Z,0.00
2022-10-05T02:36:14.898Z,0.00
2022-10-05T02:41:28.732Z,1.00
2022-10-05T02:46:37.809Z,0.00
2022-10-05T02:51:51.912Z,1.00
2022-10-05T02:57:02.094Z,0.00
2022-10-05T03:02:15.751Z,0.25
2022-10-05T03:07:23.980Z,0.00
2022-10-05T03:12:43.018Z,0.75
2022-10-05T03:17:54.223Z,0.00
2022-10-05T03:23:01.169Z,0.00
2022-10-05T03:28:13.210Z,0.25
2022-10-05T03:33:26.667Z,0.00
2022-10-05T03:38:38.383Z,0.00
2022-10-05T03:43:56.304Z,1.00
2022-10-05T03:49:08.730Z,1.00
2022-10-05T03:54:22.355Z,0.75
2022-10-05T03:59:32.705Z,1.00
2022-10-05T04:04:43.135Z,0.00
2022-10-05T04:09:50.751Z,1.00
2022-10-05T04:14:58.177Z,0.00
2022-10-05T04:20:07.084Z,0.50
2022-10-05T04:25:17.684Z,0.00
2022-10-05T04:30:22.167Z,1.00
2022-10-05T04:35:41.545Z,1.00
2022-10-05T04:40:59.763Z,1.25
2022-10-05T04:46:17.000Z,0.75
2022-10-05T04:51:35.570Z,1.00
2022-10-05T04:56:43.044Z,1.00
2022-10-05T05:02:05.854Z,0.00
2022-10-05T05:07:23.961Z,1.00
2022-10-05T05:12:41.317Z,0.50
2022-10-05T05:18:07.542Z,0.00
2022-10-05T05:23:19.716Z,0.25
2022-10-05T05:28:30.753Z,0.50
2022-10-05T05:33:46.897Z,0.50
2022-10-05T05:39:05.885Z,1.00
2022-10-05T05:44:25.951Z,0.00
2022-10-05T05:49:42.689Z,0.00
2022-10-05T05:54:54.202Z,0.50
2022-10-05T06:00:05.569Z,0.00
2022-10-05T06:05:29.039Z,0.00
2022-10-05T06:10:42.605Z,0.00
2022-10-05T06:15:54.139Z,0.00
2022-10-05T06:21:01.802Z,0.50
2022-10-05T06:26:24.401Z,0.00
2022-10-05T06:31:44.371Z,1.00
2022-10-05T06:36:52.294Z,0.50
2022-10-05T06:42:14.677Z,1.00
2022-10-05T06:47:45.879Z,0.25
2022-10-05T06:53:33.192Z,1.00
2022-10-05T06:58:52.354Z,1.50
2022-10-05T07:04:10.781Z,1.00
2022-10-05T07:09:27.577Z,2.50
2022-10-05T07:14:52.769Z,1.00
2022-10-05T07:20:04.807Z,1.00
2022-10-05T07:25:14.326Z,2.00
2022-10-05T07:30:21.138Z,1.00
2022-10-05T07:35:54.156Z,1.00
2022-10-05T07:41:03.992Z,1.25
2022-10-05T07:46:18.137Z,1.00
2022-10-05T07:51:30.116Z,1.75
2022-10-05T07:56:41.105Z,2.50
2022-10-05T08:01:51.911Z,1.00
2022-10-05T08:06:58.849Z,1.00
2022-10-05T08:12:10.579Z,1.00
2022-10-05T08:17:25.425Z,1.75
2022-10-05T08:22:32.875Z,1.00
2022-10-05T08:27:47.134Z,1.25
2022-10-05T08:32:57.010Z,0.50
2022-10-05T08:37:59.811Z,2.00
2022-10-05T08:43:28.762Z,1.75
2022-10-05T08:48:59.123Z,6.50
2022-10-05T08:54:34.463Z,6.00
2022-10-05T09:00:05.146Z,6.75
2022-10-05T09:05:40.711Z,7.25
2022-10-05T09:11:04.723Z,7.75
2022-10-05T09:16:28.271Z,10.25
2022-10-05T09:21:42.341Z,8.00
2022-10-05T09:26:54.137Z,7.50
2022-10-05T09:32:20.457Z,6.75
2022-10-05T09:37:54.810Z,7.50
2022-10-05T09:43:21.073Z,8.00
2022-10-05T09:48:50.464Z,6.25
2022-10-05T09:54:23.224Z,7.00
2022-10-05T09:59:46.040Z,7.00
2022-10-05T10:05:24.831Z,7.25
2022-10-05T10:11:00.552Z,7.00
2022-10-05T10:16:13.783Z,6.00
2022-10-05T10:21:43.282Z,6.00
2022-10-05T10:27:05.383Z,9.25
2022-10-05T10:32:33.034Z,6.50
2022-10-05T10:38:04.063Z,10.25
2022-10-05T10:43:30.352Z,12.75
2022-10-05T10:48:58.407Z,9.50
2022-10-05T10:54:38.320Z,10.50
2022-10-05T11:00:31.911Z,14.00
2022-10-05T11:06:07.497Z,12.50
2022-10-05T11:11:39.685Z,9.75
2022-10-05T11:17:17.448Z,8.50
2022-10-05T11:22:35.937Z,7.00
2022-10-05T11:27:59.981Z,6.75
2022-10-05T11:33:43.031Z,6.00
2022-10-05T11:39:17.332Z,6.00
2022-10-05T11:44:39.709Z,7.50
2022-10-05T11:49:48.038Z,5.50
2022-10-05T11:55:11.088Z,7.00
2022-10-05T12:00:18.858Z,4.75
2022-10-05T12:05:25.824Z,6.00
2022-10-05T12:10:35.827Z,6.67
2022-10-05T12:15:48.031Z,8.00
2022-10-05T12:20:55.620Z,5.50
2022-10-05T12:26:06.204Z,7.00
2022-10-05T12:31:23.728Z,7.25
2022-10-05T12:36:52.529Z,7.00
2022-10-05T12:42:10.819Z,4.50
2022-10-05T12:47:19.847Z,6.00
2022-10-05T12:52:35.352Z,5.25
2022-10-05T12:57:47.466Z,7.25
2022-10-05T13:02:51.817Z,4.00
2022-10-05T13:08:08.305Z,5.00
2022-10-05T13:13:35.475Z,6.50
2022-10-05T13:18:50.064Z,4.75
2022-10-05T13:24:00.642Z,4.75
2022-10-05T13:29:16.237Z,5.75
2022-10-05T13:34:32.022Z,6.25
2022-10-05T13:39:50.110Z,7.25
2022-10-05T13:45:00.356Z,6.75
2022-10-05T13:50:06.966Z,6.25
2022-10-05T13:55:21.922Z,6.25
2022-10-05T14:00:27.472Z,6.00
2022-10-05T14:05:31.814Z,5.00
2022-10-05T14:10:38.452Z,6.50
2022-10-05T14:15:42.625Z,4.50
2022-10-05T14:20:59.610Z,4.75
2022-10-05T14:26:04.530Z,6.25
2022-10-05T14:31:15.550Z,6.00
2022-10-05T14:36:35.954Z,5.25
2022-10-05T14:41:47.162Z,6.00
2022-10-05T14:46:55.391Z,5.00
2022-10-05T14:51:58.620Z,6.00
2022-10-05T14:57:13.670Z,4.75
2022-10-05T15:02:42.243Z,6.50
2022-10-05T15:07:49.155Z,5.75
2022-10-05T15:12:54.995Z,5.50
2022-10-05T15:18:03.133Z,5.00
2022-10-05T15:23:24.410Z,4.50
2022-10-05T15:28:37.195Z,5.00
2022-10-05T15:33:51.305Z,5.25
2022-10-05T15:39:04.700Z,7.00
2022-10-05T15:44:16.448Z,5.25
2022-10-05T15:49:30.550Z,4.75
2022-10-05T15:55:12.612Z,5.75
2022-10-05T16:00:18.665Z,5.00
2022-10-05T16:05:51.246Z,5.00
2022-10-05T16:10:54.073Z,5.50
2022-10-05T16:16:17.212Z,4.00
2022-10-05T16:21:30.210Z,5.00
2022-10-05T16:26:48.576Z,5.50
2022-10-05T16:31:58.120Z,5.25
2022-10-05T16:37:10.534Z,4.00
2022-10-05T16:42:26.430Z,6.25
2022-10-05T16:47:39.192Z,4.75
2022-10-05T16:52:48.794Z,5.00
2022-10-05T16:57:56.647Z,5.50
2022-10-05T17:03:14.719Z,5.75
2022-10-05T17:08:45.408Z,4.75
2022-10-05T17:14:01.313Z,4.50
2022-10-05T17:19:20.163Z,6.50
2022-10-05T17:24:36.246Z,4.00
2022-10-05T17:29:51.713Z,6.00
2022-10-05T17:35:22.142Z,3.50
2022-10-05T17:40:36.097Z,3.50
2022-10-05T17:46:00.635Z,4.75
2022-10-05T17:51:29.865Z,6.25
2022-10-05T17:57:12.245Z,6.00
2022-10-05T18:02:22.000Z,5.00
2022-10-05T18:07:25.472Z,4.50
2022-10-05T18:12:50.262Z,4.00
2022-10-05T18:17:56.058Z,4.25
2022-10-05T18:23:35.256Z,4.25
2022-10-05T18:28:53.867Z,3.00
2022-10-05T18:34:16.842Z,3.75
2022-10-05T18:39:37.862Z,5.00
2022-10-05T18:44:47.166Z,5.00
2022-10-05T18:49:58.571Z,3.00
2022-10-05T18:55:15.395Z,4.00
2022-10-05T19:00:21.150Z,2.75
2022-10-05T19:05:48.011Z,4.00
2022-10-05T19:10:56.126Z,4.50
2022-10-05T19:16:19.304Z,3.75
2022-10-05T19:21:34.409Z,4.00
2022-10-05T19:26:53.624Z,2.00
2022-10-05T19:32:04.321Z,4.75
2022-10-05T19:37:14.936Z,2.50
2022-10-05T19:42:46.044Z,3.00
2022-10-05T19:48:02.566Z,3.50
2022-10-05T19:53:13.234Z,3.00
2022-10-05T19:58:22.071Z,3.75
2022-10-05T20:03:29.104Z,4.00
2022-10-05T20:08:39.551Z,3.50
2022-10-05T20:13:44.136Z,4.00
2022-10-05T20:19:07.857Z,4.25
2022-10-05T20:24:12.397Z,4.00
2022-10-05T20:29:14.996Z,3.00
2022-10-05T20:34:18.986Z,3.00
2022-10-05T20:39:21.604Z,3.75
2022-10-05T20:44:24.461Z,4.00
2022-10-05T20:49:31.006Z,3.00
2022-10-05T20:54:33.869Z,3.00
2022-10-05T20:59:37.503Z,3.00
2022-10-05T21:04:46.627Z,3.75
2022-10-05T21:09:49.584Z,3.00
2022-10-05T21:14:52.922Z,3.25
2022-10-05T21:19:57.055Z,3.50
2022-10-05T21:24:59.672Z,3.00
2022-10-05T21:30:02.374Z,2.00
2022-10-05T21:35:07.005Z,2.25
2022-10-05T21:40:10.503Z,3.75
2022-10-05T21:45:13.085Z,3.00
2022-10-05T21:50:17.500Z,2.50
2022-10-05T21:55:21.138Z,2.00
2022-10-05T22:00:23.862Z,3.25
2022-10-05T22:05:27.846Z,2.00
2022-10-05T22:10:31.390Z,2.25
2022-10-05T22:15:34.165Z,2.50
2022-10-05T22:20:38.288Z,2.25
2022-10-05T22:25:41.437Z,3.50
2022-10-05T22:30:45.994Z,2.75
2022-10-05T22:35:50.384Z,4.75
2022-10-05T22:40:53.061Z,2.75
2022-10-05T22:45:56.947Z,2.50
2022-10-05T22:51:00.965Z,3.75
2022-10-05T22:56:07.717Z,2.75
2022-10-05T23:01:13.410Z,3.50
2022-10-05T23:06:20.051Z,2.50
2022-10-05T23:11:25.806Z,2.25
2022-10-05T23:16:29.654Z,2.25
2022-10-05T23:21:33.793Z,2.00
2022-10-05T23:26:36.763Z,2.25
2022-10-05T23:31:39.366Z,2.25
2022-10-05T23:36:43.401Z,2.00
2022-10-05T23:41:46.055Z,1.00
2022-10-05T23:46:48.624Z,2.75
2022-10-05T23:51:52.685Z,3.00
2022-10-05T23:56:55.247Z,2.75
